createdAt,value
2019-05-18T00:01:41.927Z,43.90
2019-05-18T00:04:09.389Z,43.90
2019-05-18T00:06:36.871Z,43.90
2019-05-18T00:09:05.395Z,43.80
2019-05-18T00:11:32.877Z,43.70
2019-05-18T00:14:00.347Z,44.30
2019-05-18T00:16:27.821Z,43.60
2019-05-18T00:18:55.282Z,43.60
2019-05-18T00:21:23.085Z,43.60
2019-05-18T00:23:50.554Z,43.60
2019-05-18T00:26:18.034Z,43.60
2019-05-18T00:28:45.499Z,43.50
2019-05-18T00:31:12.970Z,43.50
2019-05-18T00:33:40.439Z,43.50
2019-05-18T00:36:07.911Z,43.50
2019-05-18T00:38:35.379Z,43.50
2019-05-18T00:41:02.850Z,43.50
2019-05-18T00:43:30.328Z,43.60
2019-05-18T00:45:57.800Z,43.60
2019-05-18T00:48:25.266Z,43.50
2019-05-18T00:50:52.742Z,43.40
2019-05-18T00:53:20.209Z,43.50
2019-05-18T00:55:47.682Z,43.80
2019-05-18T00:58:15.149Z,44.00
2019-05-18T01:00:42.621Z,44.20
2019-05-18T01:03:10.087Z,45.10
2019-05-18T01:05:38.268Z,44.30
2019-05-18T01:08:05.899Z,44.20
2019-05-18T01:10:33.362Z,44.00
2019-05-18T01:13:00.838Z,43.90
2019-05-18T01:15:28.313Z,44.60
2019-05-18T01:17:57.844Z,43.70
2019-05-18T01:20:24.979Z,43.70
2019-05-18T01:22:52.440Z,43.60
2019-05-18T01:25:19.909Z,43.60
2019-05-18T01:27:47.386Z,43.50
2019-05-18T01:30:14.851Z,43.50
2019-05-18T01:32:42.321Z,43.40
2019-05-18T01:35:09.803Z,43.40
2019-05-18T01:37:37.312Z,44.10
2019-05-18T01:40:05.454Z,43.40
2019-05-18T01:42:32.921Z,43.40
2019-05-18T01:45:15.412Z,43.30
2019-05-18T01:47:29.593Z,43.30
2019-05-18T01:49:57.064Z,43.30
2019-05-18T01:52:24.532Z,43.30
2019-05-18T01:54:51.999Z,43.30
2019-05-18T01:57:19.462Z,43.30
2019-05-18T01:59:46.931Z,43.30
2019-05-18T02:02:14.406Z,43.30
2019-05-18T02:04:41.860Z,43.50
2019-05-18T02:07:09.349Z,43.50
2019-05-18T02:09:36.810Z,43.40
2019-05-18T02:12:04.279Z,43.40
2019-05-18T02:14:31.742Z,43.40
2019-05-18T02:16:59.246Z,43.30
2019-05-18T02:19:26.765Z,43.30
2019-05-18T02:21:54.260Z,43.30
2019-05-18T02:24:21.777Z,43.20
2019-05-18T02:26:49.254Z,43.20
2019-05-18T02:29:16.713Z,43.10
2019-05-18T02:31:44.184Z,43.80
2019-05-18T02:34:11.650Z,43.30
2019-05-18T02:36:39.146Z,43.10
2019-05-18T02:39:06.981Z,43.00
2019-05-18T02:41:34.451Z,43.00
2019-05-18T02:44:01.907Z,43.00
2019-05-18T02:46:29.388Z,42.90
2019-05-18T02:48:56.867Z,42.90
2019-05-18T02:51:24.330Z,43.00
2019-05-18T02:53:51.803Z,43.00
2019-05-18T02:56:19.262Z,42.90
2019-05-18T02:58:46.735Z,42.90
2019-05-18T03:01:14.206Z,43.00
2019-05-18T03:03:41.676Z,43.00
2019-05-18T03:06:09.142Z,43.10
2019-05-18T03:08:36.608Z,43.20
2019-05-18T03:11:04.080Z,43.10
2019-05-18T03:13:31.548Z,43.10
2019-05-18T03:15:59.015Z,43.00
2019-05-18T03:18:26.495Z,43.10
2019-05-18T03:20:53.966Z,43.00
2019-05-18T03:23:21.439Z,43.60
2019-05-18T03:25:48.908Z,42.90
2019-05-18T03:28:16.374Z,42.80
2019-05-18T03:30:43.847Z,42.90
2019-05-18T03:33:11.314Z,42.80
2019-05-18T03:35:38.790Z,42.80
2019-05-18T03:38:06.242Z,42.80
2019-05-18T03:40:33.704Z,42.80
2019-05-18T03:43:01.163Z,42.70
2019-05-18T03:45:28.624Z,42.70
2019-05-18T03:47:56.110Z,42.80
2019-05-18T03:50:23.573Z,42.80
2019-05-18T03:52:51.034Z,42.80
2019-05-18T03:55:18.496Z,42.80
2019-05-18T03:57:45.965Z,42.80
2019-05-18T04:00:13.440Z,42.80
2019-05-18T04:02:40.898Z,42.80
2019-05-18T04:05:08.405Z,42.80
2019-05-18T04:07:35.897Z,43.00
2019-05-18T04:10:05.098Z,43.00
2019-05-18T04:12:32.593Z,43.00
2019-05-18T04:15:00.055Z,42.90
2019-05-18T04:17:27.525Z,43.00
2019-05-18T04:19:54.994Z,42.90
2019-05-18T04:22:22.473Z,43.10
2019-05-18T04:24:50.043Z,42.80
2019-05-18T04:27:17.526Z,42.70
2019-05-18T04:29:44.991Z,42.60
2019-05-18T04:32:12.516Z,42.60
2019-05-18T04:34:39.992Z,42.60
2019-05-18T04:37:07.449Z,42.50
2019-05-18T04:39:34.939Z,42.50
2019-05-18T04:42:02.402Z,42.60
2019-05-18T04:44:29.878Z,42.60
2019-05-18T04:46:57.334Z,42.50
2019-05-18T04:49:24.807Z,42.60
2019-05-18T04:51:52.268Z,42.60
2019-05-18T04:54:19.735Z,42.70
2019-05-18T04:56:47.299Z,42.50
2019-05-18T04:59:14.775Z,42.60
2019-05-18T05:01:42.267Z,42.60
2019-05-18T05:04:10.065Z,42.60
2019-05-18T05:06:37.522Z,42.60
2019-05-18T05:09:06.128Z,42.90
2019-05-18T05:11:33.599Z,43.10
2019-05-18T05:14:01.090Z,43.30
2019-05-18T05:16:28.554Z,43.60
2019-05-18T05:18:56.024Z,43.60
2019-05-18T05:21:23.494Z,43.40
2019-05-18T05:26:27.022Z,43.30
2019-05-18T05:28:54.561Z,43.00
2019-05-18T05:31:22.080Z,43.00
2019-05-18T05:33:49.718Z,42.90
2019-05-18T05:36:17.175Z,42.80
2019-05-18T05:38:44.642Z,42.90
2019-05-18T05:41:16.515Z,42.80
2019-05-18T05:43:41.309Z,42.80
2019-05-18T05:46:08.777Z,42.80
2019-05-18T05:48:36.241Z,43.10
2019-05-18T05:51:03.701Z,43.60
2019-05-18T05:53:31.173Z,43.40
2019-05-18T05:55:58.629Z,43.30
2019-05-18T05:58:26.123Z,43.30
2019-05-18T06:00:53.595Z,43.40
2019-05-18T06:03:21.326Z,43.50
2019-05-18T06:05:48.798Z,44.20
2019-05-18T06:08:16.282Z,43.90
2019-05-18T06:10:43.745Z,43.90
2019-05-18T06:13:11.242Z,43.90
2019-05-18T06:15:38.719Z,44.00
2019-05-18T06:18:06.302Z,44.50
2019-05-18T06:20:33.788Z,44.40
2019-05-18T06:23:01.248Z,44.30
2019-05-18T06:25:28.722Z,44.80
2019-05-18T06:27:56.185Z,44.60
2019-05-18T06:30:23.659Z,44.60
2019-05-18T06:32:51.125Z,44.60
2019-05-18T06:35:18.594Z,44.60
2019-05-18T06:37:46.053Z,44.50
2019-05-18T06:40:13.530Z,44.60
2019-05-18T06:42:40.990Z,44.60
2019-05-18T06:45:08.450Z,44.60
2019-05-18T06:47:35.916Z,44.60
2019-05-18T06:50:05.045Z,44.60
2019-05-18T06:52:32.525Z,44.60
2019-05-18T06:54:59.993Z,44.60
2019-05-18T06:57:27.445Z,44.70
2019-05-18T06:59:54.939Z,44.70
2019-05-18T07:02:22.444Z,44.80
2019-05-18T07:04:49.922Z,44.90
2019-05-18T07:07:17.386Z,44.90
2019-05-18T07:09:44.875Z,44.90
2019-05-18T07:12:12.329Z,44.90
2019-05-18T07:14:39.802Z,45.10
2019-05-18T07:17:07.270Z,45.20
2019-05-18T07:19:34.748Z,45.30
2019-05-18T07:22:02.206Z,45.30
2019-05-18T07:24:29.670Z,45.40
2019-05-18T07:26:57.138Z,45.30
2019-05-18T07:29:24.610Z,45.30
2019-05-18T07:31:52.090Z,45.20
2019-05-18T07:34:19.566Z,45.20
2019-05-18T07:36:47.034Z,45.20
2019-05-18T07:39:14.558Z,45.10
2019-05-18T07:41:46.921Z,45.40
2019-05-18T07:44:11.261Z,45.50
2019-05-18T07:46:38.711Z,45.50
2019-05-18T07:49:06.185Z,45.50
2019-05-18T07:51:37.008Z,45.50
2019-05-18T07:54:02.827Z,45.60
2019-05-18T07:56:30.300Z,45.70
2019-05-18T07:58:57.766Z,46.00
2019-05-18T08:01:25.230Z,46.40
2019-05-18T08:03:52.694Z,46.40
2019-05-18T08:06:20.168Z,46.50
2019-05-18T08:08:47.631Z,46.50
2019-05-18T08:11:15.096Z,46.50
2019-05-18T08:13:42.561Z,46.70
2019-05-18T08:16:10.030Z,46.80
2019-05-18T08:18:37.490Z,46.80
2019-05-18T08:21:04.960Z,46.90
2019-05-18T08:23:32.413Z,46.80
2019-05-18T08:25:59.874Z,47.00
2019-05-18T08:28:27.333Z,47.30
2019-05-18T08:30:54.821Z,47.20
2019-05-18T08:33:22.289Z,47.30
2019-05-18T08:35:49.758Z,47.30
2019-05-18T08:38:17.226Z,47.30
2019-05-18T08:40:44.699Z,47.10
2019-05-18T08:43:12.153Z,47.50
2019-05-18T08:45:39.632Z,47.50
2019-05-18T08:48:07.081Z,47.60
2019-05-18T08:50:34.580Z,47.60
2019-05-18T08:53:02.037Z,47.80
2019-05-18T08:55:29.517Z,47.80
2019-05-18T08:57:56.970Z,47.80
2019-05-18T09:00:24.457Z,47.90
2019-05-18T09:02:51.906Z,47.90
2019-05-18T09:05:19.390Z,47.90
2019-05-18T09:07:46.912Z,48.00
2019-05-18T09:10:14.385Z,48.00
2019-05-18T09:12:41.863Z,48.00
2019-05-18T09:15:10.198Z,48.00
2019-05-18T09:17:37.671Z,48.10
2019-05-18T09:20:05.314Z,48.20
2019-05-18T09:22:32.786Z,48.20
2019-05-18T09:25:00.255Z,48.20
2019-05-18T09:27:27.730Z,48.30
2019-05-18T09:29:55.194Z,48.30
2019-05-18T09:32:22.665Z,48.30
2019-05-18T09:34:50.145Z,48.50
2019-05-18T09:37:17.675Z,48.60
2019-05-18T09:39:45.147Z,48.60
2019-05-18T09:42:12.622Z,48.60
2019-05-18T09:44:40.084Z,48.60
2019-05-18T09:47:07.566Z,48.70
2019-05-18T09:49:35.012Z,48.90
2019-05-18T09:52:02.691Z,48.90
2019-05-18T09:54:30.237Z,48.90
2019-05-18T09:56:57.712Z,48.90
2019-05-18T09:59:25.182Z,48.90
2019-05-18T10:01:52.652Z,48.90
2019-05-18T10:04:20.134Z,48.90
2019-05-18T10:06:47.603Z,48.80
2019-05-18T10:09:15.067Z,48.60
2019-05-18T10:11:42.533Z,48.50
2019-05-18T10:14:10.009Z,48.50
2019-05-18T10:16:37.483Z,48.50
2019-05-18T10:19:04.956Z,48.40
2019-05-18T10:21:32.433Z,48.40
2019-05-18T10:23:59.963Z,48.40
2019-05-18T10:26:27.433Z,48.40
2019-05-18T10:28:54.892Z,48.40
2019-05-18T10:31:22.368Z,48.30
2019-05-18T10:33:49.831Z,48.30
2019-05-18T10:36:17.381Z,48.30
2019-05-18T10:38:44.844Z,48.30
2019-05-18T10:41:12.321Z,48.30
2019-05-18T10:43:39.791Z,48.20
2019-05-18T10:46:07.253Z,48.30
2019-05-18T10:48:34.728Z,48.30
2019-05-18T10:51:05.419Z,48.30
2019-05-18T10:53:31.396Z,48.30
2019-05-18T10:55:58.904Z,48.30
2019-05-18T10:58:26.418Z,48.30
2019-05-18T11:00:53.914Z,48.30
2019-05-18T11:03:21.372Z,48.40
2019-05-18T11:05:48.833Z,48.40
2019-05-18T11:08:16.301Z,48.40
2019-05-18T11:10:43.766Z,48.40
2019-05-18T11:13:11.236Z,48.40
2019-05-18T11:15:38.688Z,48.50
2019-05-18T11:18:06.182Z,48.50
2019-05-18T11:20:33.637Z,48.50
2019-05-18T11:23:01.130Z,48.40
2019-05-18T11:25:28.588Z,48.40
2019-05-18T11:27:56.061Z,48.90
2019-05-18T11:30:23.529Z,48.20
2019-05-18T11:32:51.006Z,48.20
2019-05-18T11:35:18.460Z,48.10
2019-05-18T11:37:45.929Z,48.10
2019-05-18T11:40:13.637Z,48.10
2019-05-18T11:42:41.112Z,48.20
2019-05-18T11:45:08.749Z,48.10
2019-05-18T11:47:36.295Z,48.10
2019-05-18T11:50:05.259Z,48.10
2019-05-18T11:52:32.784Z,48.20
2019-05-18T11:55:00.356Z,48.20
2019-05-18T11:57:27.817Z,48.10
2019-05-18T11:59:55.287Z,48.10
2019-05-18T12:02:22.770Z,48.10
2019-05-18T12:04:50.242Z,48.10
2019-05-18T12:07:17.714Z,48.10
2019-05-18T12:09:45.186Z,48.10
2019-05-18T12:12:12.936Z,48.10
2019-05-18T12:14:40.405Z,48.10
2019-05-18T12:17:07.884Z,48.70
2019-05-18T12:19:35.355Z,48.10
2019-05-18T12:22:02.840Z,48.10
2019-05-18T12:24:30.361Z,48.10
2019-05-18T12:26:57.830Z,48.10
2019-05-18T12:29:25.334Z,48.20
2019-05-18T12:31:52.871Z,48.30
2019-05-18T12:34:20.338Z,48.70
2019-05-18T12:36:47.810Z,48.80
2019-05-18T12:39:15.274Z,49.10
2019-05-18T12:41:42.747Z,49.10
2019-05-18T12:44:10.215Z,49.10
2019-05-18T12:46:37.703Z,49.10
2019-05-18T12:49:05.188Z,49.10
2019-05-18T12:51:32.641Z,49.10
2019-05-18T12:54:00.115Z,49.10
2019-05-18T12:56:27.574Z,49.10
2019-05-18T12:58:55.042Z,49.10
2019-05-18T13:01:22.502Z,49.10
2019-05-18T13:03:49.972Z,49.10
2019-05-18T13:06:17.432Z,48.80
2019-05-18T13:08:44.916Z,48.80
2019-05-18T13:11:12.378Z,48.80
2019-05-18T13:13:39.854Z,48.70
2019-05-18T13:16:07.337Z,48.70
2019-05-18T13:18:35.271Z,48.70
2019-05-18T13:21:03.025Z,48.70
2019-05-18T13:23:30.490Z,48.60
2019-05-18T13:25:57.963Z,48.50
2019-05-18T13:28:25.426Z,48.60
2019-05-18T13:30:52.888Z,48.50
2019-05-18T13:33:20.348Z,48.50
2019-05-18T13:35:47.835Z,48.50
2019-05-18T13:38:15.312Z,48.50
2019-05-18T13:40:42.782Z,48.50
2019-05-18T13:43:10.252Z,48.50
2019-05-18T13:45:37.722Z,48.40
2019-05-18T13:48:05.198Z,48.50
2019-05-18T13:50:32.663Z,48.50
2019-05-18T13:53:00.133Z,48.50
2019-05-18T13:55:27.602Z,48.50
2019-05-18T13:57:55.074Z,48.60
2019-05-18T14:00:22.546Z,48.80
2019-05-18T14:02:50.032Z,48.80
2019-05-18T14:05:17.506Z,49.10
2019-05-18T14:07:45.003Z,49.10
2019-05-18T14:10:12.894Z,49.20
2019-05-18T14:12:40.430Z,49.20
2019-05-18T14:15:07.962Z,49.20
2019-05-18T14:17:35.443Z,49.20
2019-05-18T14:20:03.285Z,49.20
2019-05-18T14:22:30.767Z,49.20
2019-05-18T14:24:58.220Z,49.30
2019-05-18T14:27:25.697Z,49.30
2019-05-18T14:29:53.161Z,49.30
2019-05-18T14:32:20.627Z,49.30
2019-05-18T14:34:48.101Z,49.30
2019-05-18T14:37:15.556Z,49.30
2019-05-18T14:39:43.025Z,49.10
2019-05-18T14:42:10.494Z,49.10
2019-05-18T14:44:37.967Z,49.10
2019-05-18T14:47:05.430Z,49.00
2019-05-18T14:49:32.933Z,49.20
2019-05-18T14:52:00.390Z,49.10
2019-05-18T14:54:27.871Z,49.40
2019-05-18T14:56:55.335Z,49.00
2019-05-18T14:59:22.959Z,48.90
2019-05-18T15:01:50.480Z,48.80
2019-05-18T15:04:17.953Z,48.60
2019-05-18T15:06:45.586Z,48.50
2019-05-18T15:09:13.127Z,48.30
2019-05-18T15:11:40.594Z,48.30
2019-05-18T15:14:08.074Z,48.20
2019-05-18T15:16:35.555Z,48.50
2019-05-18T15:19:03.023Z,48.40
2019-05-18T15:21:30.487Z,49.00
2019-05-18T15:23:57.952Z,49.30
2019-05-18T15:26:25.420Z,49.60
2019-05-18T15:28:52.890Z,49.70
2019-05-18T15:31:23.346Z,50.00
2019-05-18T15:33:49.558Z,50.30
2019-05-18T15:36:17.011Z,50.50
2019-05-18T15:38:44.483Z,50.70
2019-05-18T15:41:11.946Z,50.80
2019-05-18T15:43:39.422Z,50.80
2019-05-18T15:46:06.890Z,50.90
2019-05-18T15:48:34.534Z,51.20
2019-05-18T15:51:02.006Z,51.30
2019-05-18T15:53:29.457Z,51.70
2019-05-18T15:56:05.314Z,51.90
2019-05-18T15:58:26.145Z,51.80
2019-05-18T16:00:53.719Z,52.00
2019-05-18T16:03:21.189Z,52.00
2019-05-18T16:05:48.650Z,52.10
2019-05-18T16:08:16.111Z,52.20
2019-05-18T16:10:43.602Z,52.10
2019-05-18T16:13:11.071Z,52.30
2019-05-18T16:15:38.611Z,52.40
2019-05-18T16:18:06.091Z,52.30
2019-05-18T16:20:33.561Z,52.50
2019-05-18T16:23:01.025Z,52.30
2019-05-18T16:25:28.490Z,52.60
2019-05-18T16:27:55.958Z,52.80
2019-05-18T16:30:23.427Z,52.90
2019-05-18T16:32:50.901Z,53.10
2019-05-18T16:35:18.363Z,53.20
2019-05-18T16:37:45.823Z,53.30
2019-05-18T16:40:13.304Z,53.40
2019-05-18T16:42:40.770Z,52.50
2019-05-18T16:45:08.257Z,53.10
2019-05-18T16:47:35.781Z,53.00
2019-05-18T16:50:03.628Z,53.70
2019-05-18T16:52:31.081Z,54.20
2019-05-18T16:54:58.566Z,54.30
2019-05-18T16:57:26.099Z,54.40
2019-05-18T16:59:54.529Z,54.50
2019-05-18T17:02:31.221Z,54.40
2019-05-18T17:04:51.202Z,54.40
2019-05-18T17:07:18.660Z,54.30
2019-05-18T17:09:46.127Z,54.40
2019-05-18T17:12:13.580Z,54.30
2019-05-18T17:14:41.058Z,54.30
2019-05-18T17:17:08.523Z,54.30
2019-05-18T17:19:36.070Z,54.40
2019-05-18T17:22:03.543Z,54.20
2019-05-18T17:24:31.017Z,54.20
2019-05-18T17:26:58.477Z,54.30
2019-05-18T17:29:25.957Z,54.30
2019-05-18T17:31:53.413Z,54.40
2019-05-18T17:34:20.886Z,54.50
2019-05-18T17:36:52.401Z,54.60
2019-05-18T17:39:17.605Z,54.70
2019-05-18T17:41:45.083Z,55.40
2019-05-18T17:44:12.585Z,54.80
2019-05-18T17:46:40.115Z,54.90
2019-05-18T17:49:07.595Z,54.90
2019-05-18T17:51:35.059Z,54.90
2019-05-18T17:54:02.519Z,54.90
2019-05-18T17:56:29.990Z,55.00
2019-05-18T17:58:57.471Z,54.40
2019-05-18T18:01:24.944Z,54.50
2019-05-18T18:03:52.401Z,54.80
2019-05-18T18:06:19.898Z,54.80
2019-05-18T18:08:47.362Z,54.90
2019-05-18T18:11:14.834Z,54.90
2019-05-18T18:13:42.304Z,55.00
2019-05-18T18:16:09.781Z,55.00
2019-05-18T18:18:37.243Z,55.00
2019-05-18T18:21:04.709Z,55.10
2019-05-18T18:23:32.182Z,55.10
2019-05-18T18:25:59.655Z,55.10
2019-05-18T18:28:27.112Z,55.10
2019-05-18T18:30:54.576Z,55.10
2019-05-18T18:33:22.043Z,55.10
2019-05-18T18:35:49.518Z,54.60
2019-05-18T18:38:16.982Z,54.90
2019-05-18T18:40:44.456Z,55.10
2019-05-18T18:43:11.931Z,55.10
2019-05-18T18:45:39.404Z,55.00
2019-05-18T18:48:06.863Z,55.20
2019-05-18T18:50:34.340Z,55.00
2019-05-18T18:53:01.811Z,55.20
2019-05-18T18:55:29.283Z,55.20
2019-05-18T18:57:56.795Z,55.10
2019-05-18T19:00:24.266Z,55.00
2019-05-18T19:02:51.745Z,55.20
2019-05-18T19:05:19.217Z,55.30
2019-05-18T19:07:46.682Z,55.40
2019-05-18T19:10:14.146Z,55.40
2019-05-18T19:12:41.633Z,55.40
2019-05-18T19:15:09.091Z,55.40
2019-05-18T19:17:36.565Z,55.40
2019-05-18T19:20:04.618Z,55.50
2019-05-18T19:22:32.094Z,55.40
2019-05-18T19:24:59.641Z,55.50
2019-05-18T19:27:27.110Z,55.50
2019-05-18T19:29:54.570Z,55.40
2019-05-18T19:32:22.048Z,55.40
2019-05-18T19:34:49.496Z,55.50
2019-05-18T19:37:16.967Z,55.60
2019-05-18T19:39:44.436Z,55.70
2019-05-18T19:42:11.916Z,55.80
2019-05-18T19:44:39.380Z,55.80
2019-05-18T19:47:06.853Z,55.80
2019-05-18T19:49:34.339Z,55.80
2019-05-18T19:52:01.867Z,55.80
2019-05-18T19:54:29.334Z,55.80
2019-05-18T19:56:56.874Z,55.80
2019-05-18T19:59:24.366Z,55.80
2019-05-18T20:01:51.855Z,55.90
2019-05-18T20:04:19.318Z,55.60
2019-05-18T20:06:46.802Z,55.50
2019-05-18T20:09:14.274Z,55.40
2019-05-18T20:11:41.748Z,55.60
2019-05-18T20:14:09.260Z,55.80
2019-05-18T20:16:37.018Z,55.70
2019-05-18T20:19:04.482Z,55.60
2019-05-18T20:21:31.964Z,55.70
2019-05-18T20:23:59.427Z,55.90
2019-05-18T20:26:26.891Z,55.90
2019-05-18T20:28:56.633Z,55.90
2019-05-18T20:31:23.545Z,56.20
2019-05-18T20:33:51.016Z,56.10
2019-05-18T20:36:18.493Z,56.20
2019-05-18T20:38:45.958Z,56.30
2019-05-18T20:41:13.466Z,56.60
2019-05-18T20:43:40.928Z,56.60
2019-05-18T20:46:08.406Z,56.40
2019-05-18T20:48:35.874Z,56.70
2019-05-18T20:51:03.334Z,56.60
2019-05-18T20:53:30.832Z,56.90
2019-05-18T20:55:58.347Z,56.80
2019-05-18T20:58:38.887Z,56.70
2019-05-18T21:00:55.030Z,57.10
2019-05-18T21:03:22.494Z,57.10
2019-05-18T21:05:49.956Z,57.10
2019-05-18T21:08:17.422Z,57.10
2019-05-18T21:10:44.886Z,57.20
2019-05-18T21:13:12.341Z,57.20
2019-05-18T21:15:39.809Z,56.70
2019-05-18T21:18:07.283Z,56.50
2019-05-18T21:20:34.741Z,56.50
2019-05-18T21:23:02.216Z,56.90
2019-05-18T21:25:29.972Z,57.10
2019-05-18T21:27:57.503Z,57.30
2019-05-18T21:30:24.964Z,57.20
2019-05-18T21:32:52.431Z,57.20
2019-05-18T21:35:19.894Z,57.20
2019-05-18T21:37:47.353Z,57.20
2019-05-18T21:40:14.822Z,57.40
2019-05-18T21:42:42.284Z,57.50
2019-05-18T21:45:09.751Z,57.30
2019-05-18T21:47:37.218Z,57.50
2019-05-18T21:50:05.270Z,57.40
2019-05-18T21:52:32.737Z,57.60
2019-05-18T21:55:00.194Z,57.50
2019-05-18T21:57:27.663Z,57.60
2019-05-18T21:59:55.126Z,57.70
2019-05-18T22:02:22.615Z,57.50
2019-05-18T22:04:50.079Z,57.50
2019-05-18T22:07:17.543Z,57.50
2019-05-18T22:09:45.019Z,57.60
2019-05-18T22:12:12.488Z,57.60
2019-05-18T22:14:39.969Z,57.50
2019-05-18T22:17:07.428Z,57.50
2019-05-18T22:19:34.898Z,57.80
2019-05-18T22:22:02.364Z,57.60
2019-05-18T22:24:29.825Z,57.70
2019-05-18T22:26:57.282Z,57.60
2019-05-18T22:29:24.755Z,57.70
2019-05-18T22:31:52.217Z,57.50
2019-05-18T22:34:19.691Z,57.50
2019-05-18T22:36:47.145Z,57.50
2019-05-18T22:39:14.626Z,57.70
2019-05-18T22:41:42.096Z,57.60
2019-05-18T22:44:09.571Z,57.70
2019-05-18T22:46:37.040Z,57.70
2019-05-18T22:49:04.519Z,57.70
2019-05-18T22:51:31.984Z,57.70
2019-05-18T22:53:59.474Z,57.60
2019-05-18T22:56:26.939Z,57.60
2019-05-18T22:58:54.399Z,57.70
2019-05-18T23:01:21.862Z,57.50
2019-05-18T23:03:51.669Z,57.60
2019-05-18T23:06:18.579Z,57.70
2019-05-18T23:08:46.047Z,57.60
2019-05-18T23:11:13.510Z,57.60
2019-05-18T23:13:40.987Z,57.50
2019-05-18T23:16:08.455Z,57.60
2019-05-18T23:18:35.926Z,57.60
2019-05-18T23:21:03.579Z,57.70
2019-05-18T23:23:31.390Z,57.50
2019-05-18T23:25:58.850Z,57.50
2019-05-18T23:28:26.328Z,57.60
2019-05-18T23:30:53.781Z,57.50
2019-05-18T23:33:21.254Z,57.50
2019-05-18T23:35:48.712Z,57.40
2019-05-18T23:38:16.175Z,57.40
2019-05-18T23:40:43.635Z,57.50
2019-05-18T23:43:11.118Z,57.40
2019-05-18T23:45:38.583Z,57.50
2019-05-18T23:48:06.069Z,57.50
2019-05-18T23:50:33.526Z,57.50
2019-05-18T23:53:01.001Z,57.50
2019-05-18T23:55:28.458Z,57.40
2019-05-18T23:57:55.927Z,57.40
